Pagina principale
METAR-TAF:

METAR-TAF

Aeroporti :

Aeroporto di Eindhoven

Eindhoven, Paesi Bassi

latitudine: 51-27N, longitudine: 005-25E, altezza: 23 m

Osservazione

Il bollettino è stato emesso 20 minuti fa, alle 00:55 UTC
Vento 5 kt da nord-est
Temperature 12°C
Umidità 62%
Pressione 1022 hPa
Visibilità 10 km o più

METAR: EHEH 310055Z AUTO 05005KT 9999 NCD 12/05 Q1022 BLU

Ora: 03:15 (01:15 UTC)

Previsione

Il bollettino è stato emesso 1 ora e 40 minuti fa, alle 23:35 UTC
Previsione valida dal 31 alle 00 UTC al 01 alle 06 UTC
Vento 4 kt da nord-est
Visibilità 10 km o più
nessuna nube inferiore a 1500 m e nessun cumulonembo
Evoluzione graduale
dal 31 alle 07 UTC al 31 alle 09 UTC
Vento 12 kt da est/nord-est con raffiche fino a 25 kt
Evoluzione graduale
dal 31 alle 18 UTC al 31 alle 21 UTC
Vento 6 kt da est/nord-est

TAF: EHEH 302335Z 3100/0106 04004KT CAVOK BECMG 3107/3109 07012G25KT BECMG 3118/3121 07006KT

Osservazioni e previsioni meteorologiche di più di 4000 aeroporti (messaggi METAR e TAF).

Le stazioni disponibili sono rappresentate dai dischi gialli e rossi sulla carta.

Puntare il mouse per vedere il nome della stazione.

Clicca sopra per visualizzare le osservazioni e previsioni meteorologiche.

Per cambiare la mappa : fare clic sui pulsanti verdi con una croce nera per ingrandire, il pulsante verde con un trattino per diminuire, o sulla freccia verde per le mappe adiacenti.


METAR-TAF: